LGKO/KGS METAR and TAF weather

Enter ICAO airport designator
Station Type Date Time Source
LGKO METAR 2024/02/26 16:20 UTC NOAA

LGKO 261620Z 14012KT 9999 FEW015 SCT020 15/12 Q1008


Station Type Date Time Source
LGKO Decoded METAR 2024/02/26 16:20 UTC NOAA

Kos Airport , Greece (LGKO) 36-47N 027-04E
Feb 26, 2024 - 11:20 AM EST / 2024.02.26 1620 UTC
Wind: from the SE (140 degrees) at 14 MPH (12 KT):0
Visibility: greater than 7 mile(s):0
Sky conditions: partly cloudy
Temperature: 59 F (15 C)
Dew Point: 53 F (12 C)
Relative Humidity: 82%
Pressure (altimeter): 29.77 in. Hg (1008 hPa)
ob: LGKO 261620Z 14012KT 9999 FEW015 SCT020 15/12 Q1008
cycle: 16

Station Type Date Time Source
LGKO TAF 2024/02/26 12:13 UTC NOAA